LFBDLFBA

Guest
Details From LFBD - Bordeaux Merignac
To LFBA - Agen la Garenne
Flight Number -
Tags generated
Created
Modified
Stats Distance 68 nm / 127 km
Max Altitude 2,600 ft / 792 m
Waypoints 3
Social Downloads 2
Likes 0
Share VATSIM

Download

Looking for another format? Having issues loading an existing format? Contact us
Advertisement - Login to hide

Notes

Basic altitude profile: - Ascent Rate: 2500ft/min - Ascent Speed: 250kts - Cruise Altitude: 35000ft - Cruise Speed: 420kts - Descent Rate: 1500ft/min - Descent Speed: 250kts

Route

LFBD SAU32 LFBA

ID Type Via Altitude Latitude Longitude Leg Dist Tot Dist Heading (true) Name
O LFBD APT - 0 ft / 0 m 44.82876˚ -0.71476˚ - 0 nm - Bordeaux Merignac
SAU32 FIX - 2,600 ft / 792 m 44.28778˚ 0.35806˚ 56 nm 56 nm 125° / 126° -
O LFBA APT - 0 ft / 0 m 44.17403˚ 0.59296˚ 12 nm 68 nm 124° / 124° Agen la Garenne

Altitude Profile

Advertisement - Login to hide

LFBD

Details ICAO LFBD (BOD)
Name Bordeaux Merignac
Region France
Timezone Europe/Paris (UTC+1.0)
Stats Elevation 166 ft / 51 m (AMSL)
Location 44.828762° -0.714755°
Runways 2
Magnetic Variation 0.068° W

METAR

LFBD 110930Z AUTO 25020G33KT 5000 R29/1300U -RA BR FEW025/// SCT040/// BKN058/// ///TCU 09/07 Q0985 TEMPO SHRA FEW020CB BKN025TCU

Decode

TAF

TAF AMD TAF AMD LFBD 110920Z 1109/1212 25015KT 9999 BKN040 TEMPO 1109/1115 25015G25KT PROB30 TEMPO 1109/1114 24020G35KT BECMG 1116/1118 27005KT TEMPO 1109/1120 2000 SHRA SCT020CB BKN025TCU BECMG 1120/1122 33010KT TEMPO 1202/1208 VRB02KT 2000 MIFG NSC TX11/1110Z TN02/1206Z

Decode

Departure Runways

ID Width Length Bearing (true) Bearing (mag) Surface Threshold Offset Overrun Length
05 148 ft / 45 m 10,164 ft / 3,098 m 45.48° 45.55° Asphalt 26 ft / 8 m 1,145 ft / 349 m
11 148 ft / 45 m 7,931 ft / 2,417 m 106.45° 106.52° Asphalt 26 ft / 8 m 1,198 ft / 365 m
23 148 ft / 45 m 10,164 ft / 3,098 m 225.50° 225.57° Asphalt 39 ft / 12 m 1,266 ft / 386 m
29 148 ft / 45 m 7,931 ft / 2,417 m 286.47° 286.54° Asphalt 33 ft / 10 m 1,201 ft / 366 m

LFBA

Details ICAO LFBA (AGF)
Name Agen la Garenne
Region France
Timezone Europe/Paris (UTC+1.0)
Stats Elevation 204 ft / 62 m (AMSL)
Location 44.174025° 0.592961°
Runways 1
Magnetic Variation 0.341° E

METAR

LFBA 110930Z AUTO 23014KT CAVOK 10/07 Q0986 NOSIG

Decode

TAF

Not found

Destination Runways

ID Width Length Bearing (true) Bearing (mag) Surface Threshold Offset Overrun Length
11 98 ft / 30 m 7,088 ft / 2,161 m 112.24° 111.90° Asphalt 541 ft / 165 m 0 ft / 0 m
29 98 ft / 30 m 7,088 ft / 2,161 m 292.26° 291.92° Asphalt 1,312 ft / 400 m 0 ft / 0 m

Approach Navaids

Runway Type Ident Frequency Range Bearing (true) Bearing (mag) Slope Elevation
29 Localiser AG 110.35 MHz 18 nm / 33 km 292.25° 291.91° - 213 ft / 65 m (AMSL)
29 Glidescope AG 110.35 MHz 10 nm / 19 km 292.25° 291.91° 3.30° 240 ft / 73 m (AMSL)
29 DME AG 110.35 MHz 18 nm / 33 km - - - 240 ft / 73 m (AMSL)

Popular Alternatives